Time;durP1;ratioP1;P1;durP2;ratioP2;P2;SDS_P1;SDS_P2;PMS_P1;PMS_P2;Temp;Humidity;BMP_temperature;BMP_pressure;BME280_temperature;BME280_humidity;BME280_pressure;Samples;Min_cycle;Max_cycle;Signal;HPM_P1;HPM_P2
2021/04/02 00:01:06;;;;;;;3.08;1.85;;;5.70;99.90;;;;;;5047388;28;20040;-71
2021/04/02 00:03:34;;;;;;;8.15;3.00;;;5.70;99.90;;;;;;5046006;28;20048;-72
2021/04/02 00:06:03;;;;;;;6.43;2.22;;;5.60;99.90;;;;;;5047460;28;20053;-71
2021/04/02 00:08:29;;;;;;;3.30;2.08;;;5.60;99.90;;;;;;5047564;28;20029;-71
2021/04/02 00:10:58;;;;;;;4.15;2.45;;;5.60;99.90;;;;;;5046006;28;20033;-71
2021/04/02 00:13:34;;;;;;;10.55;2.22;;;5.60;99.90;;;;;;5046149;28;20029;-71
2021/04/02 00:16:00;;;;;;;11.32;2.45;;;5.50;99.90;;;;;;5047193;28;20055;-72
2021/04/02 00:18:27;;;;;;;3.92;1.88;;;5.50;99.90;;;;;;5047124;28;20105;-73
2021/04/02 00:20:57;;;;;;;6.60;2.75;;;5.50;99.90;;;;;;5045876;28;20036;-72
2021/04/02 00:23:24;;;;;;;7.70;2.47;;;5.50;99.90;;;;;;5047110;28;20061;-74
2021/04/02 00:25:51;;;;;;;6.68;2.83;;;5.50;99.90;;;;;;5047183;28;20053;-73
2021/04/02 00:28:18;;;;;;;3.58;2.35;;;5.50;99.90;;;;;;5047075;28;20025;-71
2021/04/02 00:30:45;;;;;;;4.28;2.15;;;5.50;99.90;;;;;;5047140;28;20025;-73
2021/04/02 00:33:12;;;;;;;3.83;2.08;;;5.40;99.90;;;;;;5046937;28;20040;-72
2021/04/02 00:35:38;;;;;;;5.22;2.60;;;5.40;99.90;;;;;;5046860;28;20041;-70
2021/04/02 00:38:05;;;;;;;12.63;2.88;;;5.40;99.90;;;;;;5046853;28;20044;-72
2021/04/02 00:40:35;;;;;;;3.97;2.15;;;5.40;99.90;;;;;;5045196;28;20022;-72
2021/04/02 00:43:01;;;;;;;4.63;2.58;;;5.30;99.90;;;;;;5046725;28;20026;-73
2021/04/02 00:45:28;;;;;;;6.03;2.42;;;5.30;99.90;;;;;;5045063;28;20052;-73
2021/04/02 00:47:55;;;;;;;4.43;2.28;;;5.30;99.90;;;;;;5045466;28;20080;-74
2021/04/02 00:50:47;;;;;;;4.82;2.50;;;5.20;99.90;;;;;;5046744;28;20029;-70
2021/04/02 00:53:13;;;;;;;4.90;2.58;;;5.20;99.90;;;;;;5043255;28;20056;-71
2021/04/02 00:55:40;;;;;;;6.78;3.25;;;5.20;99.90;;;;;;5046571;28;20025;-71
2021/04/02 00:58:14;;;;;;;5.35;3.13;;;5.20;99.90;;;;;;5046530;28;20557;-72
2021/04/02 01:00:41;;;;;;;5.07;2.60;;;5.20;99.90;;;;;;5046433;28;20057;-72
2021/04/02 01:03:07;;;;;;;3.83;2.22;;;5.20;99.90;;;;;;5046432;28;20467;-72
2021/04/02 01:05:40;;;;;;;9.52;2.70;;;5.10;99.90;;;;;;5046213;28;20105;-72
2021/04/02 01:08:12;;;;;;;7.43;2.72;;;5.10;99.90;;;;;;5046272;28;20049;-72
2021/04/02 01:10:38;;;;;;;6.45;2.67;;;5.00;99.90;;;;;;5046212;28;20048;-72
2021/04/02 01:13:11;;;;;;;3.58;1.98;;;5.00;99.90;;;;;;5044866;28;20430;-70
2021/04/02 01:15:42;;;;;;;4.30;2.97;;;5.00;99.90;;;;;;5045950;28;20026;-72
2021/04/02 01:18:31;;;;;;;5.57;2.65;;;5.00;99.90;;;;;;5045854;28;20045;-70
2021/04/02 01:21:00;;;;;;;4.43;2.92;;;5.00;99.90;;;;;;5053645;28;20504;-71
2021/04/02 01:23:34;;;;;;;7.35;2.60;;;5.00;99.90;;;;;;5045648;28;20025;-70
2021/04/02 01:26:29;;;;;;;7.20;3.00;;;5.00;99.90;;;;;;5045822;28;20041;-74
2021/04/02 01:29:22;;;;;;;9.32;2.90;;;4.90;99.90;;;;;;5044203;28;20030;-70
2021/04/02 01:31:52;;;;;;;4.57;2.92;;;4.80;99.90;;;;;;5046276;28;20030;-73
2021/04/02 01:34:21;;;;;;;5.85;2.80;;;4.80;99.90;;;;;;5044595;28;20052;-72
2021/04/02 01:36:50;;;;;;;9.85;3.08;;;4.70;99.90;;;;;;5045667;28;20029;-72
2021/04/02 01:39:16;;;;;;;6.97;3.42;;;4.70;99.90;;;;;;5045379;28;20022;-73
2021/04/02 01:41:46;;;;;;;8.15;3.22;;;4.70;99.90;;;;;;5043775;28;20025;-73
2021/04/02 01:44:12;;;;;;;3.28;2.10;;;4.60;99.90;;;;;;5043786;28;20041;-73
2021/04/02 01:46:38;;;;;;;6.25;3.35;;;4.60;99.90;;;;;;5045274;28;20026;-73
2021/04/02 01:49:06;;;;;;;13.75;3.10;;;4.50;99.90;;;;;;5045081;28;20029;-73
2021/04/02 01:51:34;;;;;;;6.90;3.20;;;4.40;99.90;;;;;;5045316;28;20041;-72
2021/04/02 01:54:02;;;;;;;6.93;3.75;;;4.30;99.90;;;;;;5045313;28;20139;-72
2021/04/02 01:56:30;;;;;;;8.82;3.90;;;4.30;99.90;;;;;;5045055;28;20049;-72
2021/04/02 01:58:58;;;;;;;7.93;3.55;;;4.20;99.90;;;;;;5045212;28;20037;-71
2021/04/02 02:01:34;;;;;;;7.35;3.40;;;4.20;99.90;;;;;;5045081;28;20025;-73
2021/04/02 02:04:01;;;;;;;7.20;3.33;;;4.10;99.90;;;;;;5045023;28;20037;-71
2021/04/02 02:06:27;;;;;;;11.00;4.00;;;4.10;99.90;;;;;;5045115;28;20045;-74
2021/04/02 02:08:58;;;;;;;10.68;3.67;;;4.10;99.90;;;;;;5045404;28;20031;-73
2021/04/02 02:11:26;;;;;;;7.70;3.35;;;4.10;99.90;;;;;;5045049;28;20040;-73
2021/04/02 02:13:57;;;;;;;8.50;3.78;;;4.10;99.90;;;;;;5045103;28;20029;-73
2021/04/02 02:16:26;;;;;;;7.65;3.97;;;4.00;99.90;;;;;;5044956;28;20029;-72
2021/04/02 02:18:56;;;;;;;9.50;4.30;;;4.00;99.90;;;;;;5044920;28;20053;-73
2021/04/02 02:21:22;;;;;;;9.43;4.55;;;4.00;99.90;;;;;;5045074;28;20040;-71
2021/04/02 02:23:49;;;;;;;8.02;3.45;;;4.00;99.90;;;;;;5044987;28;20048;-73
2021/04/02 02:26:16;;;;;;;9.65;3.92;;;4.00;99.90;;;;;;5044957;28;20021;-71
2021/04/02 02:28:42;;;;;;;7.82;3.83;;;4.00;99.90;;;;;;5044716;28;20030;-72
2021/04/02 02:31:11;;;;;;;16.85;4.72;;;3.90;99.90;;;;;;5044766;28;20120;-72
2021/04/02 02:33:36;;;;;;;9.75;3.90;;;3.90;99.90;;;;;;5044628;28;20040;-72
2021/04/02 02:36:03;;;;;;;11.18;4.68;;;3.90;99.90;;;;;;5044698;28;20030;-71
2021/04/02 02:38:29;;;;;;;13.70;4.25;;;3.80;99.90;;;;;;5044808;28;20017;-71
2021/04/02 02:40:55;;;;;;;15.15;4.22;;;3.80;99.90;;;;;;5044616;28;20033;-70
2021/04/02 02:43:22;;;;;;;8.48;3.75;;;3.80;99.90;;;;;;5044766;28;20112;-71
2021/04/02 02:45:51;;;;;;;10.85;5.07;;;3.80;99.90;;;;;;5043466;28;20037;-71
2021/04/02 02:48:17;;;;;;;9.23;4.05;;;3.80;99.90;;;;;;5043487;28;20057;-70
2021/04/02 02:50:49;;;;;;;7.82;4.47;;;3.80;99.90;;;;;;5044888;28;20389;-72
2021/04/02 02:53:18;;;;;;;12.82;4.15;;;3.80;99.90;;;;;;5044572;28;20029;-72
2021/04/02 02:55:46;;;;;;;8.57;3.88;;;3.80;99.90;;;;;;5044426;28;20041;-72
2021/04/02 02:58:15;;;;;;;9.70;4.13;;;3.70;99.90;;;;;;5043073;28;20022;-72
2021/04/02 03:00:43;;;;;;;7.22;3.83;;;3.70;99.90;;;;;;5043124;28;20077;-71
2021/04/02 03:03:15;;;;;;;9.23;4.07;;;3.60;99.90;;;;;;5044450;28;20248;-71
2021/04/02 03:05:45;;;;;;;11.73;4.22;;;3.50;99.90;;;;;;5043148;28;20112;-72
2021/04/02 03:08:12;;;;;;;9.80;3.60;;;3.50;99.90;;;;;;5044423;28;20030;-70
2021/04/02 03:10:39;;;;;;;9.05;3.70;;;3.40;99.90;;;;;;5042673;28;20064;-72
2021/04/02 03:13:06;;;;;;;14.63;4.45;;;3.40;99.90;;;;;;5044280;28;20100;-71
2021/04/02 03:15:33;;;;;;;11.10;3.20;;;3.30;99.90;;;;;;5044594;28;20093;-72
2021/04/02 03:18:07;;;;;;;8.48;3.85;;;3.30;99.90;;;;;;5046818;28;20375;-71
2021/04/02 03:20:39;;;;;;;13.27;3.15;;;3.30;99.90;;;;;;5046984;28;20033;-70
2021/04/02 03:23:06;;;;;;;8.50;3.95;;;3.30;99.90;;;;;;5048386;28;20036;-72
2021/04/02 03:25:34;;;;;;;7.28;2.95;;;3.40;99.90;;;;;;5048001;28;20048;-72
2021/04/02 03:28:00;;;;;;;8.68;3.17;;;3.40;99.90;;;;;;5048193;28;20018;-72
2021/04/02 03:30:28;;;;;;;6.80;3.03;;;3.50;99.90;;;;;;5047994;28;20029;-74
2021/04/02 03:33:16;;;;;;;6.72;2.97;;;3.60;99.90;;;;;;5046703;28;20440;-71
2021/04/02 03:35:44;;;;;;;5.28;2.85;;;3.70;99.90;;;;;;5047693;28;20080;-72
2021/04/02 03:38:12;;;;;;;7.60;3.22;;;3.70;99.90;;;;;;5047971;28;20030;-73
2021/04/02 03:40:38;;;;;;;7.03;2.75;;;3.80;99.90;;;;;;5046342;28;20025;-73
2021/04/02 03:43:06;;;;;;;6.95;1.98;;;3.90;99.90;;;;;;5047826;28;20535;-71
2021/04/02 03:45:34;;;;;;;8.30;2.63;;;3.90;99.90;;;;;;5046429;28;20057;-71
2021/04/02 03:48:02;;;;;;;11.82;2.78;;;3.90;99.90;;;;;;5047695;28;20040;-72
2021/04/02 03:50:33;;;;;;;5.10;1.95;;;4.00;99.90;;;;;;5047681;28;20064;-71
2021/04/02 03:53:09;;;;;;;5.25;2.50;;;4.10;99.90;;;;;;5046358;28;20033;-71
2021/04/02 03:55:40;;;;;;;3.75;2.38;;;4.20;99.90;;;;;;5047646;28;20065;-71
2021/04/02 03:58:09;;;;;;;4.88;2.35;;;4.20;99.90;;;;;;5047643;28;20029;-70
2021/04/02 04:00:46;;;;;;;4.05;2.13;;;4.20;99.90;;;;;;5047577;28;20141;-72
2021/04/02 04:03:12;;;;;;;4.22;1.98;;;4.20;99.90;;;;;;5047680;28;20033;-71
2021/04/02 04:05:39;;;;;;;7.43;2.60;;;4.30;99.90;;;;;;5047308;28;20144;-71
2021/04/02 04:08:10;;;;;;;3.15;1.88;;;4.20;99.90;;;;;;5047428;28;20032;-71
2021/04/02 04:10:35;;;;;;;3.92;1.92;;;4.40;99.90;;;;;;5047145;28;20022;-71
2021/04/02 04:13:03;;;;;;;2.72;1.52;;;4.40;99.90;;;;;;5047329;28;20033;-73
2021/04/02 04:15:29;;;;;;;4.13;1.73;;;4.40;99.90;;;;;;5045729;28;20053;-71
2021/04/02 04:17:57;;;;;;;2.88;1.48;;;4.40;99.90;;;;;;5047098;28;20053;-71
2021/04/02 04:20:24;;;;;;;4.40;1.52;;;4.50;99.90;;;;;;5047383;28;20021;-73
2021/04/02 04:22:56;;;;;;;3.20;0.98;;;4.60;99.90;;;;;;5047321;28;20033;-71
2021/04/02 04:25:25;;;;;;;4.40;1.15;;;4.60;99.90;;;;;;5047109;28;20053;-71
2021/04/02 04:27:55;;;;;;;2.75;1.25;;;4.70;99.90;;;;;;5046026;28;20041;-73
2021/04/02 04:30:22;;;;;;;3.85;1.92;;;4.70;99.90;;;;;;5047130;28;20042;-73
2021/04/02 04:32:49;;;;;;;13.05;1.95;;;4.80;99.90;;;;;;5047168;28;20108;-71
2021/04/02 04:35:17;;;;;;;2.65;1.08;;;4.90;99.90;;;;;;5045580;28;20029;-71
2021/04/02 04:37:44;;;;;;;1.40;0.88;;;4.90;99.90;;;;;;5045622;28;20025;-73
2021/04/02 04:40:14;;;;;;;10.13;1.50;;;4.80;99.90;;;;;;5046696;28;20045;-70
2021/04/02 04:42:42;;;;;;;1.77;1.20;;;4.90;99.90;;;;;;5046797;28;20079;-72
2021/04/02 04:45:10;;;;;;;4.40;2.08;;;4.90;99.90;;;;;;5046592;28;20090;-72
2021/04/02 04:47:36;;;;;;;3.30;1.55;;;4.90;99.90;;;;;;5046771;28;20072;-73
2021/04/02 04:50:04;;;;;;;5.40;1.00;;;4.90;99.90;;;;;;5046532;28;20432;-71
2021/04/02 04:52:31;;;;;;;4.30;1.77;;;4.90;99.90;;;;;;5046487;28;20021;-71
2021/04/02 04:55:00;;;;;;;10.05;1.52;;;4.90;99.90;;;;;;5045015;28;20071;-72
2021/04/02 04:57:32;;;;;;;3.80;1.70;;;4.90;99.90;;;;;;5045218;28;20033;-71
2021/04/02 04:59:59;;;;;;;6.20;1.65;;;4.80;99.90;;;;;;5046182;28;20026;-72
2021/04/02 05:02:26;;;;;;;5.25;1.42;;;4.80;99.90;;;;;;5045233;28;20033;-71
2021/04/02 05:04:53;;;;;;;9.48;1.80;;;4.90;99.90;;;;;;5046228;28;20478;-72
2021/04/02 05:07:21;;;;;;;4.88;2.00;;;4.80;99.90;;;;;;5046506;28;20022;-73
2021/04/02 05:09:48;;;;;;;7.93;1.70;;;4.90;99.90;;;;;;5046226;28;20026;-72
2021/04/02 05:12:16;;;;;;;11.10;1.63;;;4.80;99.90;;;;;;5044862;28;20036;-73
2021/04/02 05:14:45;;;;;;;4.03;1.35;;;4.80;99.90;;;;;;5046146;28;20029;-71
2021/04/02 05:17:10;;;;;;;9.18;1.77;;;4.90;99.90;;;;;;5044308;28;20049;-73
2021/04/02 05:19:38;;;;;;;8.10;1.80;;;4.90;99.90;;;;;;5045993;28;20033;-73
2021/04/02 05:22:05;;;;;;;17.52;1.75;;;5.00;99.90;;;;;;5045899;28;20051;-71
2021/04/02 05:24:32;;;;;;;9.73;2.30;;;4.90;99.90;;;;;;5044481;28;20037;-72
2021/04/02 05:26:57;;;;;;;7.18;1.80;;;4.90;99.90;;;;;;5041960;28;20033;-72
2021/04/02 05:29:23;;;;;;;4.57;2.15;;;4.90;99.90;;;;;;5032222;28;20021;-72
2021/04/02 05:31:49;;;;;;;9.40;1.52;;;5.00;99.90;;;;;;5066150;28;20025;-70
2021/04/02 05:34:15;;;;;;;5.35;1.45;;;5.00;99.90;;;;;;5065934;28;20140;-72
2021/04/02 05:36:40;;;;;;;7.32;1.42;;;5.10;99.90;;;;;;5064518;28;20047;-71
2021/04/02 05:39:06;;;;;;;4.93;1.85;;;5.10;99.90;;;;;;5064039;28;20025;-71
2021/04/02 05:41:39;;;;;;;5.65;1.75;;;5.10;99.90;;;;;;5065429;28;20025;-71
2021/04/02 05:44:11;;;;;;;4.45;1.80;;;5.20;99.90;;;;;;5065405;28;20029;-71
2021/04/02 05:46:39;;;;;;;3.40;1.45;;;5.30;99.90;;;;;;5061516;28;20029;-71
2021/04/02 05:49:06;;;;;;;8.57;1.95;;;5.30;99.90;;;;;;5050012;28;20151;-71
2021/04/02 05:51:33;;;;;;;4.43;1.85;;;5.30;99.90;;;;;;5044714;28;20029;-71
2021/04/02 05:53:59;;;;;;;6.80;2.50;;;5.30;99.90;;;;;;5044880;28;20045;-71
2021/04/02 05:56:26;;;;;;;5.05;1.77;;;5.30;99.90;;;;;;5045334;28;20037;-71
2021/04/02 05:58:54;;;;;;;5.28;2.17;;;5.30;99.90;;;;;;5044959;28;20030;-71
2021/04/02 06:01:20;;;;;;;7.25;1.60;;;5.30;99.90;;;;;;5045434;28;20033;-71
2021/04/02 06:03:46;;;;;;;10.90;2.33;;;5.40;99.90;;;;;;5045205;28;20470;-70
2021/04/02 06:06:13;;;;;;;1.92;0.82;;;5.40;99.90;;;;;;5045256;28;20092;-70
2021/04/02 06:08:44;;;;;;;2.58;1.25;;;5.40;99.90;;;;;;5045139;28;20029;-71
2021/04/02 06:11:11;;;;;;;3.85;1.15;;;5.40;99.90;;;;;;5043925;28;20530;-70
2021/04/02 06:13:37;;;;;;;1.55;0.80;;;5.50;99.90;;;;;;5044722;28;20030;-70
2021/04/02 06:16:03;;;;;;;0.85;0.77;;;5.50;99.90;;;;;;5044565;28;20037;-70
2021/04/02 06:18:29;;;;;;;3.08;1.30;;;5.50;99.90;;;;;;5044654;28;20057;-72
2021/04/02 06:20:56;;;;;;;1.20;0.70;;;5.40;99.90;;;;;;5042698;28;20030;-72
2021/04/02 06:23:28;;;;;;;9.80;0.95;;;5.40;99.90;;;;;;5057460;28;20429;-71
2021/04/02 06:25:56;;;;;;;5.45;1.10;;;5.40;99.90;;;;;;5064375;28;20076;-71
2021/04/02 06:28:28;;;;;;;2.20;0.80;;;5.40;99.90;;;;;;5062965;28;20056;-73
2021/04/02 06:31:11;;;;;;;1.75;0.80;;;5.40;99.90;;;;;;5064793;28;20071;-73
2021/04/02 06:33:41;;;;;;;6.07;1.20;;;5.40;99.90;;;;;;5064274;28;20033;-71
2021/04/02 06:36:17;;;;;;;2.67;1.10;;;5.50;99.90;;;;;;5064465;28;20036;-71
2021/04/02 06:38:45;;;;;;;11.63;1.17;;;5.50;99.90;;;;;;5064223;28;20025;-71
2021/04/02 06:41:12;;;;;;;4.38;1.10;;;5.50;99.90;;;;;;5063861;28;20056;-71
2021/04/02 06:43:44;;;;;;;8.25;1.45;;;5.50;99.90;;;;;;5064548;28;20037;-72
2021/04/02 06:46:17;;;;;;;2.42;1.08;;;5.50;99.90;;;;;;5064496;28;20079;-72
2021/04/02 06:48:42;;;;;;;3.42;1.13;;;5.50;99.90;;;;;;5063261;28;20025;-72
2021/04/02 06:51:16;;;;;;;2.47;0.80;;;5.50;99.90;;;;;;5063871;28;20032;-70
2021/04/02 06:53:44;;;;;;;1.58;0.68;;;5.50;99.90;;;;;;5064760;28;20047;-71
2021/04/02 06:56:11;;;;;;;4.35;1.45;;;5.50;99.90;;;;;;5064675;28;20068;-72
2021/04/02 06:58:42;;;;;;;2.38;0.98;;;5.50;99.90;;;;;;5064576;28;20056;-70
2021/04/02 07:01:10;;;;;;;3.90;1.40;;;5.60;99.90;;;;;;5064795;28;20017;-70
2021/04/02 07:03:36;;;;;;;3.50;0.90;;;5.60;99.90;;;;;;5064228;28;20032;-71
2021/04/02 07:06:04;;;;;;;11.38;1.05;;;5.60;99.90;;;;;;5064289;28;20033;-72
2021/04/02 07:08:32;;;;;;;1.88;0.82;;;5.70;99.90;;;;;;5063034;28;20017;-72
2021/04/02 07:10:59;;;;;;;8.23;1.17;;;5.70;99.90;;;;;;5064107;28;20045;-74
2021/04/02 07:13:26;;;;;;;2.35;1.17;;;5.90;99.90;;;;;;5064409;28;20021;-72
2021/04/02 07:15:53;;;;;;;5.22;1.17;;;5.80;99.90;;;;;;5064426;28;20037;-72
2021/04/02 07:18:19;;;;;;;5.47;1.17;;;5.80;99.90;;;;;;5064429;28;20068;-71
2021/04/02 07:20:52;;;;;;;2.85;1.38;;;5.70;99.90;;;;;;5045847;28;20034;-71
2021/04/02 07:23:21;;;;;;;2.63;1.00;;;5.70;99.90;;;;;;5064367;28;20040;-71
2021/04/02 07:25:48;;;;;;;5.47;1.17;;;5.80;99.90;;;;;;5044097;28;20101;-71
2021/04/02 07:28:14;;;;;;;7.50;1.80;;;5.80;99.90;;;;;;5044235;28;20025;-70
2021/04/02 07:30:41;;;;;;;3.20;1.10;;;5.90;99.90;;;;;;5053667;28;20033;-71
2021/04/02 07:33:09;;;;;;;3.75;1.13;;;6.00;99.90;;;;;;5064266;28;20021;-72
2021/04/02 07:35:38;;;;;;;3.85;1.33;;;6.00;99.90;;;;;;5063872;28;20032;-72
2021/04/02 07:38:23;;;;;;;2.17;1.83;;;6.10;99.90;;;;;;5064062;28;20083;-71
2021/04/02 07:40:49;;;;;;;;;;;6.10;99.90;;;;;;5062459;28;20032;-71
2021/04/02 07:43:15;;;;;;;7.20;1.08;;;6.10;99.90;;;;;;5064011;28;19905;-71
2021/04/02 07:45:41;;;;;;;4.22;1.45;;;6.00;99.90;;;;;;5063626;28;20087;-71
2021/04/02 07:48:21;;;;;;;7.13;2.05;;;6.20;99.90;;;;;;5060049;28;20081;-71
2021/04/02 07:50:51;;;;;;;1.92;0.95;;;6.30;99.90;;;;;;5045722;28;20111;-73
2021/04/02 07:53:36;;;;;;;18.50;1.92;;;6.40;99.90;;;;;;5063927;28;20025;-71
2021/04/02 07:56:12;;;;;;;6.22;1.02;;;6.50;99.90;;;;;;5043959;28;20064;-72
2021/04/02 07:58:47;;;;;;;9.25;1.13;;;6.50;99.90;;;;;;5042739;28;20440;-71
2021/04/02 08:01:12;;;;;;;;;;;6.50;99.90;;;;;;5048178;28;20022;-70
2021/04/02 08:03:38;;;;;;;4.15;1.20;;;6.60;99.90;;;;;;5067295;28;20405;-71
2021/04/02 08:06:08;;;;;;;11.60;1.02;;;6.70;99.90;;;;;;5067275;28;20074;-70
2021/04/02 08:08:44;;;;;;;2.10;0.98;;;6.80;99.90;;;;;;5067196;28;20469;-71
2021/04/02 08:11:34;;;;;;;3.67;1.05;;;6.80;99.90;;;;;;5067044;28;20021;-71
2021/04/02 08:14:01;;;;;;;5.85;1.55;;;6.80;99.90;;;;;;5061708;28;20040;-71
2021/04/02 08:16:36;;;;;;;1.83;1.15;;;6.80;99.90;;;;;;5046933;28;20022;-71
2021/04/02 08:19:09;;;;;;;5.40;1.45;;;7.00;99.90;;;;;;5046990;28;20108;-71
2021/04/02 08:21:46;;;;;;;7.70;1.37;;;7.00;99.90;;;;;;5047205;28;20057;-73
2021/04/02 08:24:14;;;;;;;1.98;0.95;;;7.10;99.90;;;;;;5046690;28;20118;-71
2021/04/02 08:26:41;;;;;;;2.60;1.13;;;7.20;99.90;;;;;;5046759;28;20020;-73
2021/04/02 08:29:08;;;;;;;4.05;1.50;;;7.40;99.90;;;;;;5045356;28;20021;-73
2021/04/02 08:31:38;;;;;;;4.72;2.05;;;7.50;99.90;;;;;;5050891;28;20056;-73
2021/04/02 08:34:03;;;;;;;4.93;1.30;;;7.60;99.90;;;;;;5045869;28;20036;-73
2021/04/02 08:36:30;;;;;;;5.65;1.65;;;7.60;99.90;;;;;;5058634;28;20104;-73
2021/04/02 08:38:57;;;;;;;1.05;0.93;;;7.60;99.90;;;;;;5065021;28;20118;-72
2021/04/02 08:41:26;;;;;;;4.10;1.13;;;7.60;99.90;;;;;;5064360;28;20021;-73
2021/04/02 08:43:53;;;;;;;4.65;1.90;;;7.60;99.90;;;;;;5066594;28;20039;-72
2021/04/02 08:46:33;;;;;;;5.07;1.40;;;7.80;99.90;;;;;;5066434;28;20035;-73
2021/04/02 08:48:58;;;;;;;5.72;1.98;;;8.10;99.90;;;;;;5065452;28;20032;-71
2021/04/02 08:51:24;;;;;;;7.05;1.40;;;8.40;99.90;;;;;;5066628;28;20029;-73
2021/04/02 08:53:51;;;;;;;3.78;0.95;;;8.40;99.90;;;;;;5066339;28;20166;-73
2021/04/02 08:56:19;;;;;;;7.07;1.58;;;8.30;99.90;;;;;;5065056;28;20039;-72
2021/04/02 08:58:46;;;;;;;5.60;1.38;;;8.20;99.90;;;;;;5066405;28;20044;-71
2021/04/02 09:01:13;;;;;;;1.45;0.85;;;8.20;99.90;;;;;;5066208;28;20040;-72
2021/04/02 09:03:40;;;;;;;4.03;1.25;;;8.10;99.90;;;;;;5065942;28;20036;-71
2021/04/02 09:06:06;;;;;;;3.08;0.95;;;8.00;99.90;;;;;;5066187;28;20029;-70
2021/04/02 09:08:35;;;;;;;3.40;1.33;;;8.00;99.90;;;;;;5064801;28;20086;-71
2021/04/02 09:11:04;;;;;;;5.93;1.15;;;8.20;99.90;;;;;;5051980;28;20394;-69
2021/04/02 09:13:43;;;;;;;4.55;0.75;;;8.30;99.90;;;;;;5050044;28;20025;-70
2021/04/02 09:16:12;;;;;;;5.35;1.20;;;8.30;99.90;;;;;;5052156;28;20067;-70
2021/04/02 09:18:57;;;;;;;6.97;1.77;;;8.20;99.90;;;;;;5052242;28;20044;-70
2021/04/02 09:21:24;;;;;;;22.75;2.08;;;8.00;99.90;;;;;;5065942;28;20039;-71
2021/04/02 09:23:52;;;;;;;8.90;1.42;;;7.90;99.90;;;;;;5065946;28;20025;-71
2021/04/02 09:26:19;;;;;;;4.43;1.10;;;7.80;99.90;;;;;;5065604;28;20044;-71
2021/04/02 09:28:46;;;;;;;1.25;0.90;;;7.70;99.90;;;;;;5047566;28;20037;-72
2021/04/02 09:31:27;;;;;;;8.18;1.42;;;7.60;99.90;;;;;;5045783;28;20029;-73
2021/04/02 09:33:54;;;;;;;3.83;1.50;;;7.40;99.90;;;;;;5062587;28;20039;-73
2021/04/02 09:36:21;;;;;;;8.25;0.88;;;7.30;99.90;;;;;;5065777;28;20025;-73
2021/04/02 09:38:48;;;;;;;7.60;1.17;;;7.20;99.90;;;;;;5065366;28;20025;-72
2021/04/02 09:41:20;;;;;;;12.48;1.35;;;7.20;99.90;;;;;;5064946;28;20017;-71
2021/04/02 09:43:46;;;;;;;3.83;0.90;;;7.20;99.90;;;;;;5065163;28;20028;-72
2021/04/02 09:46:15;;;;;;;7.45;1.45;;;7.10;99.90;;;;;;5065395;28;20025;-74
2021/04/02 09:48:40;;;;;;;8.98;1.15;;;7.20;99.90;;;;;;5065465;28;20043;-72
2021/04/02 09:51:06;;;;;;;3.55;1.20;;;7.20;99.90;;;;;;5065353;28;20112;-71
2021/04/02 09:53:33;;;;;;;9.85;1.83;;;7.20;99.90;;;;;;5063921;28;20036;-70
2021/04/02 09:55:59;;;;;;;3.85;1.30;;;7.10;99.90;;;;;;5063666;28;20052;-71
2021/04/02 09:58:25;;;;;;;6.93;1.35;;;7.20;99.90;;;;;;5063760;28;20025;-71
2021/04/02 10:00:50;;;;;;;3.88;1.40;;;7.20;99.90;;;;;;5065161;28;20080;-72
2021/04/02 10:03:16;;;;;;;5.38;1.52;;;7.20;99.90;;;;;;5052510;28;20085;-71
2021/04/02 10:05:42;;;;;;;3.25;1.80;;;7.10;99.90;;;;;;5059200;28;20050;-72
2021/04/02 10:08:08;;;;;;;0.80;0.80;;;7.10;99.90;;;;;;5038285;28;20051;-72
2021/04/02 10:10:34;;;;;;;3.03;1.40;;;7.20;99.90;;;;;;5024965;28;20475;-71
2021/04/02 10:13:00;;;;;;;5.43;1.35;;;7.30;99.90;;;;;;5023900;28;20029;-72
2021/04/02 10:15:26;;;;;;;4.22;1.35;;;7.30;99.90;;;;;;5023792;28;20033;-73
2021/04/02 10:17:52;;;;;;;5.30;1.55;;;7.30;99.90;;;;;;5025254;28;20054;-69
2021/04/02 10:20:19;;;;;;;7.25;1.10;;;7.30;99.90;;;;;;5025239;28;20037;-69
2021/04/02 10:22:44;;;;;;;6.88;2.10;;;7.20;99.90;;;;;;5025130;28;20034;-69
2021/04/02 10:25:10;;;;;;;2.90;1.17;;;7.20;99.90;;;;;;5022740;28;20042;-70
2021/04/02 10:27:35;;;;;;;1.60;1.00;;;7.40;99.90;;;;;;5024913;28;20056;-70
2021/04/02 10:30:01;;;;;;;3.55;1.23;;;7.50;99.90;;;;;;5024802;28;20086;-69
2021/04/02 10:32:27;;;;;;;6.97;1.52;;;7.50;99.90;;;;;;5023729;28;20030;-71
2021/04/02 10:34:53;;;;;;;3.83;1.10;;;7.60;99.90;;;;;;5025020;28;20069;-74
2021/04/02 10:37:20;;;;;;;3.47;0.98;;;7.50;99.90;;;;;;5023935;28;20057;-73
2021/04/02 10:39:45;;;;;;;7.00;1.88;;;7.50;99.90;;;;;;5024994;28;20613;-71
2021/04/02 10:42:11;;;;;;;2.47;0.95;;;7.50;99.90;;;;;;5025179;28;20065;-71
2021/04/02 10:44:37;;;;;;;4.13;1.00;;;7.60;99.90;;;;;;5025157;28;20045;-72
2021/04/02 10:47:03;;;;;;;7.45;0.98;;;7.60;99.90;;;;;;5024898;28;20049;-71
2021/04/02 10:49:29;;;;;;;1.83;1.27;;;7.60;99.90;;;;;;5024561;28;20029;-71
2021/04/02 10:51:55;;;;;;;4.88;0.82;;;7.70;99.90;;;;;;5024850;28;20038;-72
2021/04/02 10:54:21;;;;;;;13.15;1.67;;;7.80;99.90;;;;;;5024751;28;20026;-71
2021/04/02 10:56:47;;;;;;;5.47;1.23;;;7.80;99.90;;;;;;5024840;28;20034;-70
2021/04/02 10:59:13;;;;;;;3.45;1.67;;;7.80;99.90;;;;;;5024810;28;20022;-70
2021/04/02 11:01:39;;;;;;;4.47;1.08;;;7.70;99.90;;;;;;5024600;28;20022;-72
2021/04/02 11:04:04;;;;;;;1.42;0.90;;;7.70;99.90;;;;;;5024487;28;20046;-71
2021/04/02 11:06:30;;;;;;;2.67;0.60;;;7.70;99.90;;;;;;5024448;28;20033;-70
2021/04/02 11:08:56;;;;;;;5.88;0.85;;;7.80;99.90;;;;;;5024793;28;20037;-72
2021/04/02 11:11:22;;;;;;;1.20;0.57;;;7.80;99.90;;;;;;5024495;28;20053;-69
2021/04/02 11:13:47;;;;;;;3.55;0.95;;;7.80;99.90;;;;;;5024719;28;20046;-71
2021/04/02 11:16:13;;;;;;;4.75;0.98;;;7.80;99.90;;;;;;5023220;28;20034;-71
2021/04/02 11:18:41;;;;;;;3.58;1.08;;;7.90;99.90;;;;;;5024158;28;20049;-70
2021/04/02 11:21:07;;;;;;;2.47;0.88;;;8.00;99.90;;;;;;5039555;28;20037;-70
2021/04/02 11:23:32;;;;;;;8.82;1.05;;;8.10;99.90;;;;;;5024478;28;20026;-71
2021/04/02 11:25:58;;;;;;;2.90;1.05;;;8.20;99.90;;;;;;5024236;28;20041;-70
2021/04/02 11:28:24;;;;;;;5.30;1.08;;;8.20;99.90;;;;;;5023162;28;20030;-78
2021/04/02 11:30:50;;;;;;;5.20;0.90;;;8.20;99.90;;;;;;5024944;28;20394;-71
2021/04/02 11:33:16;;;;;;;16.88;1.23;;;8.30;99.90;;;;;;5024833;28;20030;-70
2021/04/02 11:35:42;;;;;;;3.55;1.45;;;8.30;99.90;;;;;;5024010;28;20052;-70
2021/04/02 11:38:07;;;;;;;0.90;0.75;;;8.40;99.90;;;;;;5026391;28;20040;-71
2021/04/02 11:40:34;;;;;;;3.35;0.70;;;8.50;99.90;;;;;;5027565;28;20034;-71
2021/04/02 11:43:00;;;;;;;2.70;1.13;;;8.50;99.90;;;;;;5029499;28;20033;-71
2021/04/02 11:45:26;;;;;;;2.65;0.65;;;8.50;99.90;;;;;;5027763;28;20042;-71
2021/04/02 11:47:52;;;;;;;12.32;1.88;;;8.50;99.90;;;;;;5028332;28;20034;-73
2021/04/02 11:50:18;;;;;;;6.70;1.58;;;8.50;99.90;;;;;;5026757;28;20026;-72
2021/04/02 11:52:43;;;;;;;0.88;0.80;;;8.60;99.90;;;;;;5032216;28;20060;-72
2021/04/02 11:55:11;;;;;;;3.00;0.93;;;8.60;99.90;;;;;;5037807;28;20056;-71
2021/04/02 11:57:36;;;;;;;5.38;0.85;;;8.50;99.90;;;;;;5035633;28;20029;-70
2021/04/02 12:00:11;;;;;;;6.72;1.13;;;8.50;99.90;;;;;;5035960;28;20022;-70
2021/04/02 12:02:37;;;;;;;3.70;0.80;;;8.60;99.90;;;;;;5036585;28;20018;-72
2021/04/02 12:05:04;;;;;;;12.52;1.13;;;8.60;99.90;;;;;;5036446;28;20041;-71
2021/04/02 12:07:30;;;;;;;2.22;0.77;;;8.60;99.90;;;;;;5036426;28;20017;-71
2021/04/02 12:09:55;;;;;;;6.53;0.90;;;8.70;99.90;;;;;;5035582;28;20039;-72
2021/04/02 12:12:21;;;;;;;6.50;1.10;;;8.80;99.90;;;;;;5037181;28;20025;-73
2021/04/02 12:14:47;;;;;;;4.95;1.23;;;9.00;99.90;;;;;;5035611;28;20022;-73
2021/04/02 12:17:12;;;;;;;1.92;0.40;;;9.00;99.90;;;;;;5034610;28;20042;-69
2021/04/02 12:19:38;;;;;;;2.22;0.65;;;9.10;99.90;;;;;;5041797;28;20120;-72
2021/04/02 12:22:04;;;;;;;9.93;1.45;;;9.20;99.90;;;;;;5035992;28;20018;-72
2021/04/02 12:24:31;;;;;;;4.18;0.70;;;9.10;99.90;;;;;;5034885;28;20042;-71
2021/04/02 12:26:57;;;;;;;4.70;1.10;;;9.10;99.90;;;;;;5033673;28;20085;-71
2021/04/02 12:29:25;;;;;;;6.35;0.93;;;9.00;99.90;;;;;;5026434;28;20030;-72
2021/04/02 12:31:52;;;;;;;0.65;0.30;;;8.90;99.90;;;;;;5036683;28;20040;-72
2021/04/02 12:34:18;;;;;;;7.88;1.17;;;8.70;99.90;;;;;;5032577;28;20030;-73
2021/04/02 12:36:43;;;;;;;13.15;1.80;;;8.70;99.90;;;;;;5028426;28;20030;-70
2021/04/02 12:39:09;;;;;;;2.20;0.90;;;8.50;99.90;;;;;;5025655;28;20133;-70
2021/04/02 12:41:35;;;;;;;2.20;0.95;;;8.50;99.90;;;;;;5026787;28;20386;-69
2021/04/02 12:44:00;;;;;;;1.63;0.65;;;8.50;99.90;;;;;;5025539;28;20029;-71
2021/04/02 12:46:28;;;;;;;2.60;1.00;;;8.40;99.90;;;;;;5026529;28;20387;-70
2021/04/02 12:48:55;;;;;;;1.73;0.88;;;8.30;99.90;;;;;;5024481;28;20133;-72
2021/04/02 12:51:20;;;;;;;2.53;0.68;;;8.30;99.90;;;;;;5025633;28;20037;-71
2021/04/02 12:53:47;;;;;;;0.55;0.50;;;8.20;99.90;;;;;;5026194;28;20656;-69
2021/04/02 12:56:12;;;;;;;3.30;1.00;;;8.20;99.90;;;;;;5026548;28;20660;-71
2021/04/02 12:58:38;;;;;;;1.50;0.80;;;8.20;99.90;;;;;;5024674;28;20026;-70
2021/04/02 13:01:03;;;;;;;10.05;0.45;;;8.20;99.90;;;;;;5026653;28;20045;-71